sensor_id;sensor_type;location;lat;lon;timestamp;temperature;humidity
78611;SHT30;67932;50.474;4.436;2023-06-04T00:02:06;14.79;47.00
78611;SHT30;67932;50.474;4.436;2023-06-04T00:04:33;14.81;47.12
78611;SHT30;67932;50.474;4.436;2023-06-04T00:06:59;14.70;47.75
78611;SHT30;67932;50.474;4.436;2023-06-04T00:09:25;14.77;47.11
78611;SHT30;67932;50.474;4.436;2023-06-04T00:11:51;14.79;47.39
78611;SHT30;67932;50.474;4.436;2023-06-04T00:14:18;14.79;47.33
78611;SHT30;67932;50.474;4.436;2023-06-04T00:16:44;14.75;47.67
78611;SHT30;67932;50.474;4.436;2023-06-04T00:19:10;14.70;47.57
78611;SHT30;67932;50.474;4.436;2023-06-04T00:21:37;14.67;47.51
78611;SHT30;67932;50.474;4.436;2023-06-04T00:24:03;14.65;47.64
78611;SHT30;67932;50.474;4.436;2023-06-04T00:26:29;14.57;47.86
78611;SHT30;67932;50.474;4.436;2023-06-04T00:28:56;14.53;47.93
78611;SHT30;67932;50.474;4.436;2023-06-04T00:31:22;14.46;48.29
78611;SHT30;67932;50.474;4.436;2023-06-04T00:33:48;14.49;47.73
78611;SHT30;67932;50.474;4.436;2023-06-04T00:36:15;14.47;48.03
78611;SHT30;67932;50.474;4.436;2023-06-04T00:38:41;14.47;48.13
78611;SHT30;67932;50.474;4.436;2023-06-04T00:41:07;14.35;48.44
78611;SHT30;67932;50.474;4.436;2023-06-04T00:43:33;14.36;48.71
78611;SHT30;67932;50.474;4.436;2023-06-04T00:46:02;14.32;48.58
78611;SHT30;67932;50.474;4.436;2023-06-04T00:48:31;14.30;48.81
78611;SHT30;67932;50.474;4.436;2023-06-04T00:50:58;14.21;48.93
78611;SHT30;67932;50.474;4.436;2023-06-04T00:53:25;14.21;49.15
78611;SHT30;67932;50.474;4.436;2023-06-04T00:55:51;14.19;49.15
78611;SHT30;67932;50.474;4.436;2023-06-04T00:58:18;14.19;49.35
78611;SHT30;67932;50.474;4.436;2023-06-04T01:00:44;14.18;49.49
78611;SHT30;67932;50.474;4.436;2023-06-04T01:03:14;14.15;49.51
78611;SHT30;67932;50.474;4.436;2023-06-04T01:06:33;14.18;49.61
78611;SHT30;67932;50.474;4.436;2023-06-04T01:08:32;14.12;49.67
78611;SHT30;67932;50.474;4.436;2023-06-04T01:10:59;14.11;49.81
78611;SHT30;67932;50.474;4.436;2023-06-04T01:13:25;14.18;49.62
78611;SHT30;67932;50.474;4.436;2023-06-04T01:15:51;14.13;49.70
78611;SHT30;67932;50.474;4.436;2023-06-04T01:18:26;14.06;49.61
78611;SHT30;67932;50.474;4.436;2023-06-04T01:21:01;14.02;50.00
78611;SHT30;67932;50.474;4.436;2023-06-04T01:23:47;14.00;50.10
78611;SHT30;67932;50.474;4.436;2023-06-04T01:26:15;13.98;50.17
78611;SHT30;67932;50.474;4.436;2023-06-04T01:28:42;13.89;50.26
78611;SHT30;67932;50.474;4.436;2023-06-04T01:31:09;13.89;50.44
78611;SHT30;67932;50.474;4.436;2023-06-04T01:33:36;13.86;50.29
78611;SHT30;67932;50.474;4.436;2023-06-04T01:36:03;13.86;50.59
78611;SHT30;67932;50.474;4.436;2023-06-04T01:38:29;13.88;50.19
78611;SHT30;67932;50.474;4.436;2023-06-04T01:40:56;13.89;50.18
78611;SHT30;67932;50.474;4.436;2023-06-04T01:43:27;13.82;49.92
78611;SHT30;67932;50.474;4.436;2023-06-04T01:45:54;13.79;50.31
78611;SHT30;67932;50.474;4.436;2023-06-04T01:48:22;13.79;50.18
78611;SHT30;67932;50.474;4.436;2023-06-04T01:50:48;13.75;50.12
78611;SHT30;67932;50.474;4.436;2023-06-04T01:53:15;13.74;50.04
78611;SHT30;67932;50.474;4.436;2023-06-04T01:55:41;13.71;50.15
78611;SHT30;67932;50.474;4.436;2023-06-04T01:58:08;13.72;50.14
78611;SHT30;67932;50.474;4.436;2023-06-04T02:00:35;13.65;50.17
78611;SHT30;67932;50.474;4.436;2023-06-04T02:03:01;13.71;50.25
78611;SHT30;67932;50.474;4.436;2023-06-04T02:05:27;13.67;50.02
78611;SHT30;67932;50.474;4.436;2023-06-04T02:07:54;13.67;50.12
78611;SHT30;67932;50.474;4.436;2023-06-04T02:10:20;13.64;49.95
78611;SHT30;67932;50.474;4.436;2023-06-04T02:13:00;13.64;49.97
78611;SHT30;67932;50.474;4.436;2023-06-04T02:15:29;13.60;49.80
78611;SHT30;67932;50.474;4.436;2023-06-04T02:17:58;13.61;49.83
78611;SHT30;67932;50.474;4.436;2023-06-04T02:20:28;13.58;49.92
78611;SHT30;67932;50.474;4.436;2023-06-04T02:22:55;13.60;49.87
78611;SHT30;67932;50.474;4.436;2023-06-04T02:25:22;13.58;50.17
78611;SHT30;67932;50.474;4.436;2023-06-04T02:27:48;13.57;49.98
78611;SHT30;67932;50.474;4.436;2023-06-04T02:30:15;13.51;50.24
78611;SHT30;67932;50.474;4.436;2023-06-04T02:32:43;13.48;50.14
78611;SHT30;67932;50.474;4.436;2023-06-04T02:35:10;13.44;50.53
78611;SHT30;67932;50.474;4.436;2023-06-04T02:37:37;13.36;50.71
78611;SHT30;67932;50.474;4.436;2023-06-04T02:40:03;13.36;50.51
78611;SHT30;67932;50.474;4.436;2023-06-04T02:42:30;13.27;50.96
78611;SHT30;67932;50.474;4.436;2023-06-04T02:44:56;13.27;50.99
78611;SHT30;67932;50.474;4.436;2023-06-04T02:47:22;13.24;51.01
78611;SHT30;67932;50.474;4.436;2023-06-04T02:49:48;13.11;51.25
78611;SHT30;67932;50.474;4.436;2023-06-04T02:52:15;13.04;51.27
78611;SHT30;67932;50.474;4.436;2023-06-04T02:54:41;13.08;51.58
78611;SHT30;67932;50.474;4.436;2023-06-04T02:57:07;13.13;51.35
78611;SHT30;67932;50.474;4.436;2023-06-04T02:59:34;13.08;51.29
78611;SHT30;67932;50.474;4.436;2023-06-04T03:02:03;12.90;51.84
78611;SHT30;67932;50.474;4.436;2023-06-04T03:04:30;12.92;51.71
78611;SHT30;67932;50.474;4.436;2023-06-04T03:07:01;12.97;51.80
78611;SHT30;67932;50.474;4.436;2023-06-04T03:09:29;12.93;52.04
78611;SHT30;67932;50.474;4.436;2023-06-04T03:12:00;12.89;52.03
78611;SHT30;67932;50.474;4.436;2023-06-04T03:14:31;12.80;52.18
78611;SHT30;67932;50.474;4.436;2023-06-04T03:17:01;12.73;52.30
78611;SHT30;67932;50.474;4.436;2023-06-04T03:19:40;12.77;52.41
78611;SHT30;67932;50.474;4.436;2023-06-04T03:22:09;12.76;52.40
78611;SHT30;67932;50.474;4.436;2023-06-04T03:24:38;12.75;52.79
78611;SHT30;67932;50.474;4.436;2023-06-04T03:27:06;12.76;52.40
78611;SHT30;67932;50.474;4.436;2023-06-04T03:29:33;12.70;52.13
78611;SHT30;67932;50.474;4.436;2023-06-04T03:32:00;12.73;52.47
78611;SHT30;67932;50.474;4.436;2023-06-04T03:34:27;12.76;52.11
78611;SHT30;67932;50.474;4.436;2023-06-04T03:36:54;12.72;52.37
78611;SHT30;67932;50.474;4.436;2023-06-04T03:39:21;12.75;52.32
78611;SHT30;67932;50.474;4.436;2023-06-04T03:41:47;12.67;52.36
78611;SHT30;67932;50.474;4.436;2023-06-04T03:44:15;12.63;52.62
78611;SHT30;67932;50.474;4.436;2023-06-04T03:46:42;12.66;52.77
78611;SHT30;67932;50.474;4.436;2023-06-04T03:49:09;12.53;52.76
78611;SHT30;67932;50.474;4.436;2023-06-04T03:51:36;12.56;53.28
78611;SHT30;67932;50.474;4.436;2023-06-04T03:54:03;12.46;52.93
78611;SHT30;67932;50.474;4.436;2023-06-04T03:56:29;12.46;53.12
78611;SHT30;67932;50.474;4.436;2023-06-04T03:58:56;12.45;53.20
78611;SHT30;67932;50.474;4.436;2023-06-04T04:01:23;12.39;53.56
78611;SHT30;67932;50.474;4.436;2023-06-04T04:03:50;12.36;53.16
78611;SHT30;67932;50.474;4.436;2023-06-04T04:06:17;12.39;53.45
78611;SHT30;67932;50.474;4.436;2023-06-04T04:08:43;12.46;53.66
78611;SHT30;67932;50.474;4.436;2023-06-04T04:11:14;12.42;53.70
78611;SHT30;67932;50.474;4.436;2023-06-04T04:13:40;12.46;53.63
78611;SHT30;67932;50.474;4.436;2023-06-04T04:16:07;12.46;53.48
78611;SHT30;67932;50.474;4.436;2023-06-04T04:18:34;12.42;53.47
78611;SHT30;67932;50.474;4.436;2023-06-04T04:21:01;12.45;53.70
78611;SHT30;67932;50.474;4.436;2023-06-04T04:23:29;12.41;54.02
78611;SHT30;67932;50.474;4.436;2023-06-04T04:25:58;12.39;54.18
78611;SHT30;67932;50.474;4.436;2023-06-04T04:28:25;12.35;53.98
78611;SHT30;67932;50.474;4.436;2023-06-04T04:30:54;12.24;54.33
78611;SHT30;67932;50.474;4.436;2023-06-04T04:33:23;12.25;54.60
78611;SHT30;67932;50.474;4.436;2023-06-04T04:35:51;12.21;54.75
78611;SHT30;67932;50.474;4.436;2023-06-04T04:38:21;12.22;54.95
78611;SHT30;67932;50.474;4.436;2023-06-04T04:40:50;12.24;55.02
78611;SHT30;67932;50.474;4.436;2023-06-04T04:43:32;12.26;55.03
78611;SHT30;67932;50.474;4.436;2023-06-04T04:45:59;12.26;55.55
78611;SHT30;67932;50.474;4.436;2023-06-04T04:48:27;12.15;55.68
78611;SHT30;67932;50.474;4.436;2023-06-04T04:50:54;12.06;55.99
78611;SHT30;67932;50.474;4.436;2023-06-04T04:53:20;12.15;55.96
78611;SHT30;67932;50.474;4.436;2023-06-04T04:55:46;12.22;55.75
78611;SHT30;67932;50.474;4.436;2023-06-04T04:58:14;12.25;55.89
78611;SHT30;67932;50.474;4.436;2023-06-04T05:00:41;12.24;56.50
78611;SHT30;67932;50.474;4.436;2023-06-04T05:03:07;12.29;56.22
78611;SHT30;67932;50.474;4.436;2023-06-04T05:05:34;12.35;56.34
78611;SHT30;67932;50.474;4.436;2023-06-04T05:08:00;12.28;56.55
78611;SHT30;67932;50.474;4.436;2023-06-04T05:10:26;12.36;56.49
78611;SHT30;67932;50.474;4.436;2023-06-04T05:12:58;12.38;56.76
78611;SHT30;67932;50.474;4.436;2023-06-04T05:15:26;12.45;56.56
78611;SHT30;67932;50.474;4.436;2023-06-04T05:17:53;12.53;56.42
78611;SHT30;67932;50.474;4.436;2023-06-04T05:20:22;12.56;56.68
78611;SHT30;67932;50.474;4.436;2023-06-04T05:22:49;12.53;56.66
78611;SHT30;67932;50.474;4.436;2023-06-04T05:25:17;12.55;56.61
78611;SHT30;67932;50.474;4.436;2023-06-04T05:27:43;12.60;56.73
78611;SHT30;67932;50.474;4.436;2023-06-04T05:30:10;12.67;56.95
78611;SHT30;67932;50.474;4.436;2023-06-04T05:32:37;12.63;56.51
78611;SHT30;67932;50.474;4.436;2023-06-04T05:35:06;12.76;56.10
78611;SHT30;67932;50.474;4.436;2023-06-04T05:37:34;12.75;56.23
78611;SHT30;67932;50.474;4.436;2023-06-04T05:40:01;12.80;56.23
78611;SHT30;67932;50.474;4.436;2023-06-04T05:42:31;12.80;55.96
78611;SHT30;67932;50.474;4.436;2023-06-04T05:44:58;12.84;56.10
78611;SHT30;67932;50.474;4.436;2023-06-04T05:47:24;12.82;56.23
78611;SHT30;67932;50.474;4.436;2023-06-04T05:49:50;12.79;57.10
78611;SHT30;67932;50.474;4.436;2023-06-04T05:52:17;12.83;56.80
78611;SHT30;67932;50.474;4.436;2023-06-04T05:54:43;12.87;56.82
78611;SHT30;67932;50.474;4.436;2023-06-04T05:57:09;13.00;56.77
78611;SHT30;67932;50.474;4.436;2023-06-04T05:59:36;12.97;57.06
78611;SHT30;67932;50.474;4.436;2023-06-04T06:02:02;13.03;56.99
78611;SHT30;67932;50.474;4.436;2023-06-04T06:04:28;13.20;56.46
78611;SHT30;67932;50.474;4.436;2023-06-04T06:06:54;13.24;56.58
78611;SHT30;67932;50.474;4.436;2023-06-04T06:09:21;13.38;56.20
78611;SHT30;67932;50.474;4.436;2023-06-04T06:11:47;13.44;55.72
78611;SHT30;67932;50.474;4.436;2023-06-04T06:14:14;13.43;55.63
78611;SHT30;67932;50.474;4.436;2023-06-04T06:16:41;13.47;55.66
78611;SHT30;67932;50.474;4.436;2023-06-04T06:19:07;13.58;56.08
78611;SHT30;67932;50.474;4.436;2023-06-04T06:21:33;13.70;55.85
78611;SHT30;67932;50.474;4.436;2023-06-04T06:23:59;13.78;55.36
78611;SHT30;67932;50.474;4.436;2023-06-04T06:26:26;13.89;55.35
78611;SHT30;67932;50.474;4.436;2023-06-04T06:28:52;13.97;55.10
78611;SHT30;67932;50.474;4.436;2023-06-04T06:31:18;14.05;55.12
78611;SHT30;67932;50.474;4.436;2023-06-04T06:33:44;14.06;55.08
78611;SHT30;67932;50.474;4.436;2023-06-04T06:36:11;14.22;54.73
78611;SHT30;67932;50.474;4.436;2023-06-04T06:38:44;14.30;54.25
78611;SHT30;67932;50.474;4.436;2023-06-04T06:41:13;14.37;53.79
78611;SHT30;67932;50.474;4.436;2023-06-04T06:43:40;14.43;53.55
78611;SHT30;67932;50.474;4.436;2023-06-04T06:46:06;14.53;53.77
78611;SHT30;67932;50.474;4.436;2023-06-04T06:48:34;14.65;53.57
78611;SHT30;67932;50.474;4.436;2023-06-04T06:51:00;14.72;52.53
78611;SHT30;67932;50.474;4.436;2023-06-04T06:53:27;14.79;52.63
78611;SHT30;67932;50.474;4.436;2023-06-04T06:55:53;14.90;52.71
78611;SHT30;67932;50.474;4.436;2023-06-04T06:58:19;15.00;52.57
78611;SHT30;67932;50.474;4.436;2023-06-04T07:00:45;15.00;52.76
78611;SHT30;67932;50.474;4.436;2023-06-04T07:03:11;15.08;52.38
78611;SHT30;67932;50.474;4.436;2023-06-04T07:05:38;15.12;52.84
78611;SHT30;67932;50.474;4.436;2023-06-04T07:08:04;15.21;52.79
78611;SHT30;67932;50.474;4.436;2023-06-04T07:10:31;15.28;52.40
78611;SHT30;67932;50.474;4.436;2023-06-04T07:12:57;15.42;52.97
78611;SHT30;67932;50.474;4.436;2023-06-04T07:15:23;15.48;52.58
78611;SHT30;67932;50.474;4.436;2023-06-04T07:17:50;15.62;51.73
78611;SHT30;67932;50.474;4.436;2023-06-04T07:20:16;15.66;51.39
78611;SHT30;67932;50.474;4.436;2023-06-04T07:22:42;15.72;51.84
78611;SHT30;67932;50.474;4.436;2023-06-04T07:25:09;15.82;51.33
78611;SHT30;67932;50.474;4.436;2023-06-04T07:27:35;15.94;50.75
78611;SHT30;67932;50.474;4.436;2023-06-04T07:30:01;15.94;50.60
78611;SHT30;67932;50.474;4.436;2023-06-04T07:32:27;16.02;50.51
78611;SHT30;67932;50.474;4.436;2023-06-04T07:34:54;16.10;50.12
78611;SHT30;67932;50.474;4.436;2023-06-04T07:37:20;16.16;49.90
78611;SHT30;67932;50.474;4.436;2023-06-04T07:39:47;16.20;49.29
78611;SHT30;67932;50.474;4.436;2023-06-04T07:42:14;16.32;49.48
78611;SHT30;67932;50.474;4.436;2023-06-04T07:44:40;16.40;49.40
78611;SHT30;67932;50.474;4.436;2023-06-04T07:47:07;16.42;49.42
78611;SHT30;67932;50.474;4.436;2023-06-04T07:49:33;16.50;48.55
78611;SHT30;67932;50.474;4.436;2023-06-04T07:51:59;16.61;48.48
78611;SHT30;67932;50.474;4.436;2023-06-04T07:54:26;16.57;48.30
78611;SHT30;67932;50.474;4.436;2023-06-04T07:56:52;16.67;49.85
78611;SHT30;67932;50.474;4.436;2023-06-04T07:59:22;16.77;49.16
78611;SHT30;67932;50.474;4.436;2023-06-04T08:01:50;16.81;48.96
78611;SHT30;67932;50.474;4.436;2023-06-04T08:04:18;16.97;48.07
78611;SHT30;67932;50.474;4.436;2023-06-04T08:06:44;17.03;48.76
78611;SHT30;67932;50.474;4.436;2023-06-04T08:09:10;17.10;48.80
78611;SHT30;67932;50.474;4.436;2023-06-04T08:11:38;17.13;48.58
78611;SHT30;67932;50.474;4.436;2023-06-04T08:14:06;17.15;48.65
78611;SHT30;67932;50.474;4.436;2023-06-04T08:16:32;17.23;48.30
78611;SHT30;67932;50.474;4.436;2023-06-04T08:18:59;17.28;48.31
78611;SHT30;67932;50.474;4.436;2023-06-04T08:21:28;17.45;48.58
78611;SHT30;67932;50.474;4.436;2023-06-04T08:23:56;17.51;48.23
78611;SHT30;67932;50.474;4.436;2023-06-04T08:26:23;17.49;47.64
78611;SHT30;67932;50.474;4.436;2023-06-04T08:28:50;17.66;46.95
78611;SHT30;67932;50.474;4.436;2023-06-04T08:31:17;17.66;47.57
78611;SHT30;67932;50.474;4.436;2023-06-04T08:33:44;17.85;46.90
78611;SHT30;67932;50.474;4.436;2023-06-04T08:36:11;17.86;47.45
78611;SHT30;67932;50.474;4.436;2023-06-04T08:38:37;17.90;46.54
78611;SHT30;67932;50.474;4.436;2023-06-04T08:43:37;17.95;47.11
78611;SHT30;67932;50.474;4.436;2023-06-04T08:46:05;17.99;46.75
78611;SHT30;67932;50.474;4.436;2023-06-04T08:48:35;18.03;47.40
78611;SHT30;67932;50.474;4.436;2023-06-04T08:51:03;18.06;47.45
78611;SHT30;67932;50.474;4.436;2023-06-04T08:53:32;18.08;46.24
78611;SHT30;67932;50.474;4.436;2023-06-04T08:55:58;18.06;46.08
78611;SHT30;67932;50.474;4.436;2023-06-04T08:58:26;18.14;46.03
78611;SHT30;67932;50.474;4.436;2023-06-04T09:00:53;18.26;46.32
78611;SHT30;67932;50.474;4.436;2023-06-04T09:03:21;18.36;46.09
78611;SHT30;67932;50.474;4.436;2023-06-04T09:05:48;18.53;46.34
78611;SHT30;67932;50.474;4.436;2023-06-04T09:08:18;18.60;45.55
78611;SHT30;67932;50.474;4.436;2023-06-04T09:10:47;18.61;45.44
78611;SHT30;67932;50.474;4.436;2023-06-04T09:13:21;18.63;46.22
78611;SHT30;67932;50.474;4.436;2023-06-04T09:16:02;18.64;45.61
78611;SHT30;67932;50.474;4.436;2023-06-04T09:18:29;18.80;43.65
78611;SHT30;67932;50.474;4.436;2023-06-04T09:21:14;18.90;44.12
78611;SHT30;67932;50.474;4.436;2023-06-04T09:23:44;19.01;44.59
78611;SHT30;67932;50.474;4.436;2023-06-04T09:26:10;19.00;44.73
78611;SHT30;67932;50.474;4.436;2023-06-04T09:28:44;19.10;44.35
78611;SHT30;67932;50.474;4.436;2023-06-04T09:31:14;19.11;43.50
78611;SHT30;67932;50.474;4.436;2023-06-04T09:33:50;19.24;43.86
78611;SHT30;67932;50.474;4.436;2023-06-04T09:36:17;19.32;43.54
78611;SHT30;67932;50.474;4.436;2023-06-04T09:38:43;19.41;42.14
78611;SHT30;67932;50.474;4.436;2023-06-04T09:41:14;19.44;41.76
78611;SHT30;67932;50.474;4.436;2023-06-04T09:43:41;19.55;41.87
78611;SHT30;67932;50.474;4.436;2023-06-04T09:46:11;19.59;42.28
78611;SHT30;67932;50.474;4.436;2023-06-04T09:48:38;19.66;40.13
78611;SHT30;67932;50.474;4.436;2023-06-04T09:51:15;19.83;40.76
78611;SHT30;67932;50.474;4.436;2023-06-04T09:53:54;19.96;41.80
78611;SHT30;67932;50.474;4.436;2023-06-04T09:56:22;19.93;40.99
78611;SHT30;67932;50.474;4.436;2023-06-04T09:58:49;19.90;41.43
78611;SHT30;67932;50.474;4.436;2023-06-04T10:01:20;19.92;41.49
78611;SHT30;67932;50.474;4.436;2023-06-04T10:03:48;20.05;40.63
78611;SHT30;67932;50.474;4.436;2023-06-04T10:06:16;20.16;38.89
78611;SHT30;67932;50.474;4.436;2023-06-04T10:08:46;20.16;39.61
78611;SHT30;67932;50.474;4.436;2023-06-04T10:11:14;20.17;39.84
78611;SHT30;67932;50.474;4.436;2023-06-04T10:13:52;20.19;37.46
78611;SHT30;67932;50.474;4.436;2023-06-04T10:16:20;20.22;37.96
78611;SHT30;67932;50.474;4.436;2023-06-04T10:18:48;20.34;37.02
78611;SHT30;67932;50.474;4.436;2023-06-04T10:21:15;20.40;37.63
78611;SHT30;67932;50.474;4.436;2023-06-04T10:23:44;20.39;37.90
78611;SHT30;67932;50.474;4.436;2023-06-04T10:26:14;20.44;37.22
78611;SHT30;67932;50.474;4.436;2023-06-04T10:28:42;20.48;37.02
78611;SHT30;67932;50.474;4.436;2023-06-04T10:31:12;20.57;36.73
78611;SHT30;67932;50.474;4.436;2023-06-04T10:33:39;20.66;36.44
78611;SHT30;67932;50.474;4.436;2023-06-04T10:36:19;20.70;35.96
78611;SHT30;67932;50.474;4.436;2023-06-04T10:38:51;20.81;36.10
78611;SHT30;67932;50.474;4.436;2023-06-04T10:41:19;20.81;35.42
78611;SHT30;67932;50.474;4.436;2023-06-04T10:43:47;20.84;35.46
78611;SHT30;67932;50.474;4.436;2023-06-04T10:46:18;20.81;35.82
78611;SHT30;67932;50.474;4.436;2023-06-04T10:48:50;21.01;35.41
78611;SHT30;67932;50.474;4.436;2023-06-04T10:51:28;21.81;33.43
78611;SHT30;67932;50.474;4.436;2023-06-04T10:53:57;23.21;30.94
78611;SHT30;67932;50.474;4.436;2023-06-04T10:56:27;23.10;31.35
78611;SHT30;67932;50.474;4.436;2023-06-04T10:58:54;22.75;31.30
78611;SHT30;67932;50.474;4.436;2023-06-04T11:01:28;23.23;31.80
78611;SHT30;67932;50.474;4.436;2023-06-04T11:03:55;22.65;32.45
78611;SHT30;67932;50.474;4.436;2023-06-04T11:06:22;22.50;33.37
78611;SHT30;67932;50.474;4.436;2023-06-04T11:08:48;22.17;33.51
78611;SHT30;67932;50.474;4.436;2023-06-04T11:11:15;22.09;34.84
78611;SHT30;67932;50.474;4.436;2023-06-04T11:13:43;21.90;33.61
78611;SHT30;67932;50.474;4.436;2023-06-04T11:16:20;21.92;32.57
78611;SHT30;67932;50.474;4.436;2023-06-04T11:18:57;21.93;32.87
78611;SHT30;67932;50.474;4.436;2023-06-04T11:21:25;21.86;33.56
78611;SHT30;67932;50.474;4.436;2023-06-04T11:24:00;21.86;34.30
78611;SHT30;67932;50.474;4.436;2023-06-04T11:26:38;21.73;34.64
78611;SHT30;67932;50.474;4.436;2023-06-04T11:29:12;21.75;34.51
78611;SHT30;67932;50.474;4.436;2023-06-04T11:31:48;21.85;34.75
78611;SHT30;67932;50.474;4.436;2023-06-04T11:34:27;21.86;33.80
78611;SHT30;67932;50.474;4.436;2023-06-04T11:36:54;22.02;32.70
78611;SHT30;67932;50.474;4.436;2023-06-04T11:39:22;22.05;32.22
78611;SHT30;67932;50.474;4.436;2023-06-04T11:41:50;22.10;32.76
78611;SHT30;67932;50.474;4.436;2023-06-04T11:44:19;22.14;32.08
78611;SHT30;67932;50.474;4.436;2023-06-04T11:46:47;22.23;31.91
78611;SHT30;67932;50.474;4.436;2023-06-04T11:49:18;22.24;31.80
78611;SHT30;67932;50.474;4.436;2023-06-04T11:51:49;22.44;32.00
78611;SHT30;67932;50.474;4.436;2023-06-04T11:54:16;22.80;32.14
78611;SHT30;67932;50.474;4.436;2023-06-04T11:56:43;23.80;30.44
78611;SHT30;67932;50.474;4.436;2023-06-04T11:59:16;24.67;29.10
78611;SHT30;67932;50.474;4.436;2023-06-04T12:01:43;25.07;28.29
78611;SHT30;67932;50.474;4.436;2023-06-04T12:04:14;24.65;28.68
78611;SHT30;67932;50.474;4.436;2023-06-04T12:06:54;24.21;29.25
78611;SHT30;67932;50.474;4.436;2023-06-04T12:09:28;23.85;29.35
78611;SHT30;67932;50.474;4.436;2023-06-04T12:11:59;23.65;28.98
78611;SHT30;67932;50.474;4.436;2023-06-04T12:14:26;23.58;29.04
78611;SHT30;67932;50.474;4.436;2023-06-04T12:16:59;23.65;29.60
78611;SHT30;67932;50.474;4.436;2023-06-04T12:19:26;23.92;28.42
78611;SHT30;67932;50.474;4.436;2023-06-04T12:22:04;24.64;28.46
78611;SHT30;67932;50.474;4.436;2023-06-04T12:24:49;25.10;26.72
78611;SHT30;67932;50.474;4.436;2023-06-04T12:27:15;25.73;26.54
78611;SHT30;67932;50.474;4.436;2023-06-04T12:29:42;26.63;25.46
78611;SHT30;67932;50.474;4.436;2023-06-04T12:32:09;27.74;24.10
78611;SHT30;67932;50.474;4.436;2023-06-04T12:34:42;28.21;23.74
78611;SHT30;67932;50.474;4.436;2023-06-04T12:37:08;28.55;23.42
78611;SHT30;67932;50.474;4.436;2023-06-04T12:39:35;29.33;21.77
78611;SHT30;67932;50.474;4.436;2023-06-04T12:42:03;29.48;21.34
78611;SHT30;67932;50.474;4.436;2023-06-04T12:44:31;29.79;20.88
78611;SHT30;67932;50.474;4.436;2023-06-04T12:46:57;30.06;21.05
78611;SHT30;67932;50.474;4.436;2023-06-04T12:49:23;29.93;21.05
78611;SHT30;67932;50.474;4.436;2023-06-04T12:51:51;30.07;20.75
78611;SHT30;67932;50.474;4.436;2023-06-04T12:54:18;30.18;20.68
78611;SHT30;67932;50.474;4.436;2023-06-04T12:56:45;30.51;20.50
78611;SHT30;67932;50.474;4.436;2023-06-04T12:59:11;30.74;20.37
78611;SHT30;67932;50.474;4.436;2023-06-04T13:01:37;30.28;20.54
78611;SHT30;67932;50.474;4.436;2023-06-04T13:04:04;30.47;19.86
78611;SHT30;67932;50.474;4.436;2023-06-04T13:06:33;30.47;19.89
78611;SHT30;67932;50.474;4.436;2023-06-04T13:08:59;30.87;19.68
78611;SHT30;67932;50.474;4.436;2023-06-04T13:11:26;30.77;20.32
78611;SHT30;67932;50.474;4.436;2023-06-04T13:13:52;30.41;20.40
78611;SHT30;67932;50.474;4.436;2023-06-04T13:16:18;30.27;21.00
78611;SHT30;67932;50.474;4.436;2023-06-04T13:18:44;30.10;22.18
78611;SHT30;67932;50.474;4.436;2023-06-04T13:21:11;30.79;20.40
78611;SHT30;67932;50.474;4.436;2023-06-04T13:23:37;30.28;20.77
78611;SHT30;67932;50.474;4.436;2023-06-04T13:26:03;30.74;20.19
78611;SHT30;67932;50.474;4.436;2023-06-04T13:28:30;31.05;20.59
78611;SHT30;67932;50.474;4.436;2023-06-04T13:30:56;31.42;20.11
78611;SHT30;67932;50.474;4.436;2023-06-04T13:33:22;30.91;20.74
78611;SHT30;67932;50.474;4.436;2023-06-04T13:35:49;31.42;19.81
78611;SHT30;67932;50.474;4.436;2023-06-04T13:38:16;31.32;20.16
78611;SHT30;67932;50.474;4.436;2023-06-04T13:40:42;31.16;19.81
78611;SHT30;67932;50.474;4.436;2023-06-04T13:43:10;31.22;19.74
78611;SHT30;67932;50.474;4.436;2023-06-04T13:45:37;30.95;20.22
78611;SHT30;67932;50.474;4.436;2023-06-04T13:48:03;31.18;19.92
78611;SHT30;67932;50.474;4.436;2023-06-04T13:50:33;31.09;20.39
78611;SHT30;67932;50.474;4.436;2023-06-04T13:52:59;31.22;20.10
78611;SHT30;67932;50.474;4.436;2023-06-04T13:55:25;31.49;19.96
78611;SHT30;67932;50.474;4.436;2023-06-04T13:57:52;31.67;20.14
78611;SHT30;67932;50.474;4.436;2023-06-04T14:00:18;31.61;21.27
78611;SHT30;67932;50.474;4.436;2023-06-04T14:02:47;31.69;20.29
78611;SHT30;67932;50.474;4.436;2023-06-04T14:05:14;31.82;19.94
78611;SHT30;67932;50.474;4.436;2023-06-04T14:07:44;31.85;20.01
78611;SHT30;67932;50.474;4.436;2023-06-04T14:10:12;31.72;19.97
78611;SHT30;67932;50.474;4.436;2023-06-04T14:12:39;31.45;20.41
78611;SHT30;67932;50.474;4.436;2023-06-04T14:15:07;31.35;20.64
78611;SHT30;67932;50.474;4.436;2023-06-04T14:17:38;31.55;20.52
78611;SHT30;67932;50.474;4.436;2023-06-04T14:20:05;31.87;20.17
78611;SHT30;67932;50.474;4.436;2023-06-04T14:22:38;31.53;20.62
78611;SHT30;67932;50.474;4.436;2023-06-04T14:25:06;31.45;21.44
78611;SHT30;67932;50.474;4.436;2023-06-04T14:27:33;31.23;21.59
78611;SHT30;67932;50.474;4.436;2023-06-04T14:30:03;31.52;21.56
78611;SHT30;67932;50.474;4.436;2023-06-04T14:32:30;31.25;20.91
78611;SHT30;67932;50.474;4.436;2023-06-04T14:34:56;30.94;21.38
78611;SHT30;67932;50.474;4.436;2023-06-04T14:37:23;31.22;21.72
78611;SHT30;67932;50.474;4.436;2023-06-04T14:39:49;31.11;21.27
78611;SHT30;67932;50.474;4.436;2023-06-04T14:42:18;31.49;21.57
78611;SHT30;67932;50.474;4.436;2023-06-04T14:44:45;31.25;21.16
78611;SHT30;67932;50.474;4.436;2023-06-04T14:47:12;31.31;20.77
78611;SHT30;67932;50.474;4.436;2023-06-04T14:49:38;31.35;20.73
78611;SHT30;67932;50.474;4.436;2023-06-04T14:52:05;31.70;20.06
78611;SHT30;67932;50.474;4.436;2023-06-04T14:54:32;31.45;20.81
78611;SHT30;67932;50.474;4.436;2023-06-04T14:56:58;31.29;21.03
78611;SHT30;67932;50.474;4.436;2023-06-04T14:59:24;31.45;20.54
78611;SHT30;67932;50.474;4.436;2023-06-04T15:01:53;31.73;20.06
78611;SHT30;67932;50.474;4.436;2023-06-04T15:04:20;31.86;19.80
78611;SHT30;67932;50.474;4.436;2023-06-04T15:06:46;31.69;19.61
78611;SHT30;67932;50.474;4.436;2023-06-04T15:09:13;31.61;19.28
78611;SHT30;67932;50.474;4.436;2023-06-04T15:11:40;31.35;20.16
78611;SHT30;67932;50.474;4.436;2023-06-04T15:14:06;31.39;20.00
78611;SHT30;67932;50.474;4.436;2023-06-04T15:16:33;31.19;19.68
78611;SHT30;67932;50.474;4.436;2023-06-04T15:18:59;31.49;19.53
78611;SHT30;67932;50.474;4.436;2023-06-04T15:21:35;31.65;20.06
78611;SHT30;67932;50.474;4.436;2023-06-04T15:24:01;31.32;19.97
78611;SHT30;67932;50.474;4.436;2023-06-04T15:26:28;31.56;18.96
78611;SHT30;67932;50.474;4.436;2023-06-04T15:28:54;31.18;19.14
78611;SHT30;67932;50.474;4.436;2023-06-04T15:31:22;31.43;18.60
78611;SHT30;67932;50.474;4.436;2023-06-04T15:33:48;31.65;18.89
78611;SHT30;67932;50.474;4.436;2023-06-04T15:36:16;31.82;18.89
78611;SHT30;67932;50.474;4.436;2023-06-04T15:38:42;31.62;19.16